sensor_id;sensor_type;location;lat;lon;timestamp;temperature;humidity
36352;DHT22;22382;44.768;17.206;2023-07-16T00:02:01;23.30;99.90
36352;DHT22;22382;44.768;17.206;2023-07-16T00:04:28;23.20;99.90
36352;DHT22;22382;44.768;17.206;2023-07-16T00:06:55;23.20;99.90
36352;DHT22;22382;44.768;17.206;2023-07-16T00:09:22;23.10;99.90
36352;DHT22;22382;44.768;17.206;2023-07-16T00:11:50;23.10;99.90
36352;DHT22;22382;44.768;17.206;2023-07-16T00:14:17;23.10;99.90
36352;DHT22;22382;44.768;17.206;2023-07-16T00:16:44;23.00;99.90
36352;DHT22;22382;44.768;17.206;2023-07-16T00:19:11;23.00;99.90
36352;DHT22;22382;44.768;17.206;2023-07-16T00:21:39;23.00;99.90
36352;DHT22;22382;44.768;17.206;2023-07-16T00:24:06;22.90;99.90
36352;DHT22;22382;44.768;17.206;2023-07-16T00:26:33;22.90;99.90
36352;DHT22;22382;44.768;17.206;2023-07-16T00:29:00;22.90;99.90
36352;DHT22;22382;44.768;17.206;2023-07-16T00:31:27;22.90;99.90
36352;DHT22;22382;44.768;17.206;2023-07-16T00:33:54;22.80;99.90
36352;DHT22;22382;44.768;17.206;2023-07-16T00:36:21;22.80;99.90
36352;DHT22;22382;44.768;17.206;2023-07-16T00:38:48;22.80;99.90
36352;DHT22;22382;44.768;17.206;2023-07-16T00:41:16;22.80;99.90
36352;DHT22;22382;44.768;17.206;2023-07-16T00:43:43;22.80;99.90
36352;DHT22;22382;44.768;17.206;2023-07-16T00:46:10;22.80;99.90
36352;DHT22;22382;44.768;17.206;2023-07-16T00:48:38;22.70;99.90
36352;DHT22;22382;44.768;17.206;2023-07-16T00:51:06;22.70;99.90
36352;DHT22;22382;44.768;17.206;2023-07-16T00:53:33;22.60;99.90
36352;DHT22;22382;44.768;17.206;2023-07-16T00:56:01;22.60;99.90
36352;DHT22;22382;44.768;17.206;2023-07-16T00:58:29;22.50;99.90
36352;DHT22;22382;44.768;17.206;2023-07-16T01:00:56;22.50;99.90
36352;DHT22;22382;44.768;17.206;2023-07-16T01:03:23;22.50;99.90
36352;DHT22;22382;44.768;17.206;2023-07-16T01:08:44;22.40;99.90
36352;DHT22;22382;44.768;17.206;2023-07-16T01:11:11;22.40;99.90
36352;DHT22;22382;44.768;17.206;2023-07-16T01:13:39;22.40;99.90
36352;DHT22;22382;44.768;17.206;2023-07-16T01:16:06;22.30;99.90
36352;DHT22;22382;44.768;17.206;2023-07-16T01:18:33;22.30;99.90
36352;DHT22;22382;44.768;17.206;2023-07-16T01:21:00;22.30;99.90
36352;DHT22;22382;44.768;17.206;2023-07-16T01:26:32;22.20;99.90
36352;DHT22;22382;44.768;17.206;2023-07-16T01:31:50;22.10;99.90
36352;DHT22;22382;44.768;17.206;2023-07-16T01:34:18;22.10;99.90
36352;DHT22;22382;44.768;17.206;2023-07-16T01:36:46;22.00;99.90
36352;DHT22;22382;44.768;17.206;2023-07-16T01:39:13;22.00;99.90
36352;DHT22;22382;44.768;17.206;2023-07-16T01:41:41;22.00;99.90
36352;DHT22;22382;44.768;17.206;2023-07-16T01:44:08;22.00;99.90
36352;DHT22;22382;44.768;17.206;2023-07-16T01:46:35;22.00;99.90
36352;DHT22;22382;44.768;17.206;2023-07-16T01:49:02;22.00;99.90
36352;DHT22;22382;44.768;17.206;2023-07-16T01:51:29;21.90;99.90
36352;DHT22;22382;44.768;17.206;2023-07-16T01:53:56;21.90;99.90
36352;DHT22;22382;44.768;17.206;2023-07-16T01:56:23;21.90;99.90
36352;DHT22;22382;44.768;17.206;2023-07-16T01:58:50;21.80;99.90
36352;DHT22;22382;44.768;17.206;2023-07-16T02:01:17;21.80;99.90
36352;DHT22;22382;44.768;17.206;2023-07-16T02:03:44;21.80;99.90
36352;DHT22;22382;44.768;17.206;2023-07-16T02:06:12;21.80;99.90
36352;DHT22;22382;44.768;17.206;2023-07-16T02:08:41;21.70;99.90
36352;DHT22;22382;44.768;17.206;2023-07-16T02:11:08;21.70;99.90
36352;DHT22;22382;44.768;17.206;2023-07-16T02:13:35;21.70;99.90
36352;DHT22;22382;44.768;17.206;2023-07-16T02:16:02;21.70;99.90
36352;DHT22;22382;44.768;17.206;2023-07-16T02:18:30;21.70;99.90
36352;DHT22;22382;44.768;17.206;2023-07-16T02:20:56;21.70;99.90
36352;DHT22;22382;44.768;17.206;2023-07-16T02:23:24;21.70;99.90
36352;DHT22;22382;44.768;17.206;2023-07-16T02:25:51;21.60;99.90
36352;DHT22;22382;44.768;17.206;2023-07-16T02:28:18;21.60;99.90
36352;DHT22;22382;44.768;17.206;2023-07-16T02:30:45;21.60;99.90
36352;DHT22;22382;44.768;17.206;2023-07-16T02:33:12;21.50;99.90
36352;DHT22;22382;44.768;17.206;2023-07-16T02:35:39;21.50;99.90
36352;DHT22;22382;44.768;17.206;2023-07-16T02:38:06;21.50;99.90
36352;DHT22;22382;44.768;17.206;2023-07-16T02:40:33;21.40;99.90
36352;DHT22;22382;44.768;17.206;2023-07-16T02:43:00;21.40;99.90
36352;DHT22;22382;44.768;17.206;2023-07-16T02:45:27;21.40;99.90
36352;DHT22;22382;44.768;17.206;2023-07-16T02:47:54;21.30;99.90
36352;DHT22;22382;44.768;17.206;2023-07-16T02:50:21;21.30;99.90
36352;DHT22;22382;44.768;17.206;2023-07-16T02:52:48;21.30;99.90
36352;DHT22;22382;44.768;17.206;2023-07-16T02:55:15;21.30;99.90
36352;DHT22;22382;44.768;17.206;2023-07-16T02:57:42;21.30;99.90
36352;DHT22;22382;44.768;17.206;2023-07-16T03:00:09;21.30;99.90
36352;DHT22;22382;44.768;17.206;2023-07-16T03:02:36;21.30;99.90
36352;DHT22;22382;44.768;17.206;2023-07-16T03:05:04;21.30;99.90
36352;DHT22;22382;44.768;17.206;2023-07-16T03:07:31;21.20;99.90
36352;DHT22;22382;44.768;17.206;2023-07-16T03:09:58;21.20;99.90
36352;DHT22;22382;44.768;17.206;2023-07-16T03:12:27;21.20;99.90
36352;DHT22;22382;44.768;17.206;2023-07-16T03:14:54;21.20;99.90
36352;DHT22;22382;44.768;17.206;2023-07-16T03:17:21;21.20;99.90
36352;DHT22;22382;44.768;17.206;2023-07-16T03:19:49;21.20;99.90
36352;DHT22;22382;44.768;17.206;2023-07-16T03:22:16;21.20;99.90
36352;DHT22;22382;44.768;17.206;2023-07-16T03:24:43;21.20;99.90
36352;DHT22;22382;44.768;17.206;2023-07-16T03:27:10;21.20;99.90
36352;DHT22;22382;44.768;17.206;2023-07-16T03:29:44;21.20;99.90
36352;DHT22;22382;44.768;17.206;2023-07-16T03:32:11;21.30;99.90
36352;DHT22;22382;44.768;17.206;2023-07-16T03:34:38;21.20;99.90
36352;DHT22;22382;44.768;17.206;2023-07-16T03:37:05;21.30;99.90
36352;DHT22;22382;44.768;17.206;2023-07-16T03:39:33;21.30;99.90
36352;DHT22;22382;44.768;17.206;2023-07-16T03:42:00;21.30;99.90
36352;DHT22;22382;44.768;17.206;2023-07-16T03:44:27;21.30;99.90
36352;DHT22;22382;44.768;17.206;2023-07-16T03:46:54;21.50;99.90
36352;DHT22;22382;44.768;17.206;2023-07-16T03:49:21;21.80;99.90
36352;DHT22;22382;44.768;17.206;2023-07-16T03:51:48;22.10;99.90
36352;DHT22;22382;44.768;17.206;2023-07-16T03:54:15;22.30;99.90
36352;DHT22;22382;44.768;17.206;2023-07-16T03:56:42;22.60;99.90
36352;DHT22;22382;44.768;17.206;2023-07-16T03:59:09;22.90;99.90
36352;DHT22;22382;44.768;17.206;2023-07-16T04:01:36;23.30;99.90
36352;DHT22;22382;44.768;17.206;2023-07-16T04:04:03;23.40;99.90
36352;DHT22;22382;44.768;17.206;2023-07-16T04:06:30;23.40;99.90
36352;DHT22;22382;44.768;17.206;2023-07-16T04:08:57;23.50;99.90
36352;DHT22;22382;44.768;17.206;2023-07-16T04:11:24;23.60;99.90
36352;DHT22;22382;44.768;17.206;2023-07-16T04:13:51;23.70;99.90
36352;DHT22;22382;44.768;17.206;2023-07-16T04:16:18;23.80;99.90
36352;DHT22;22382;44.768;17.206;2023-07-16T04:18:46;24.00;99.90
36352;DHT22;22382;44.768;17.206;2023-07-16T04:21:13;24.20;99.90
36352;DHT22;22382;44.768;17.206;2023-07-16T04:23:40;24.50;99.90
36352;DHT22;22382;44.768;17.206;2023-07-16T04:26:07;24.70;99.90
36352;DHT22;22382;44.768;17.206;2023-07-16T04:28:34;24.90;99.90
36352;DHT22;22382;44.768;17.206;2023-07-16T04:31:01;25.10;99.90
36352;DHT22;22382;44.768;17.206;2023-07-16T04:33:28;25.20;99.90
36352;DHT22;22382;44.768;17.206;2023-07-16T04:35:55;25.40;99.90
36352;DHT22;22382;44.768;17.206;2023-07-16T04:38:22;25.50;99.90
36352;DHT22;22382;44.768;17.206;2023-07-16T04:40:49;25.70;99.90
36352;DHT22;22382;44.768;17.206;2023-07-16T04:43:16;26.00;99.90
36352;DHT22;22382;44.768;17.206;2023-07-16T04:45:44;26.10;99.90
36352;DHT22;22382;44.768;17.206;2023-07-16T04:48:13;26.20;99.90
36352;DHT22;22382;44.768;17.206;2023-07-16T04:50:40;26.40;99.90
36352;DHT22;22382;44.768;17.206;2023-07-16T04:53:07;26.50;99.90
36352;DHT22;22382;44.768;17.206;2023-07-16T04:55:35;26.60;99.90
36352;DHT22;22382;44.768;17.206;2023-07-16T04:58:03;26.70;99.90
36352;DHT22;22382;44.768;17.206;2023-07-16T05:00:31;26.90;99.90
36352;DHT22;22382;44.768;17.206;2023-07-16T05:02:58;27.00;99.90
36352;DHT22;22382;44.768;17.206;2023-07-16T05:05:26;27.10;99.90
36352;DHT22;22382;44.768;17.206;2023-07-16T05:07:52;27.20;99.90
36352;DHT22;22382;44.768;17.206;2023-07-16T05:10:20;27.40;99.90
36352;DHT22;22382;44.768;17.206;2023-07-16T05:12:47;27.50;99.90
36352;DHT22;22382;44.768;17.206;2023-07-16T05:15:14;27.60;99.90
36352;DHT22;22382;44.768;17.206;2023-07-16T05:17:41;27.70;99.90
36352;DHT22;22382;44.768;17.206;2023-07-16T05:20:08;27.80;99.90
36352;DHT22;22382;44.768;17.206;2023-07-16T05:22:36;27.90;99.90
36352;DHT22;22382;44.768;17.206;2023-07-16T05:25:03;27.90;99.90
36352;DHT22;22382;44.768;17.206;2023-07-16T05:27:31;28.00;99.90
36352;DHT22;22382;44.768;17.206;2023-07-16T05:29:58;28.10;99.90
36352;DHT22;22382;44.768;17.206;2023-07-16T05:32:25;28.20;99.90
36352;DHT22;22382;44.768;17.206;2023-07-16T05:34:52;28.40;99.90
36352;DHT22;22382;44.768;17.206;2023-07-16T05:37:19;28.50;99.90
36352;DHT22;22382;44.768;17.206;2023-07-16T05:39:46;28.70;99.90
36352;DHT22;22382;44.768;17.206;2023-07-16T05:42:13;28.80;99.90
36352;DHT22;22382;44.768;17.206;2023-07-16T05:44:41;28.80;99.90
36352;DHT22;22382;44.768;17.206;2023-07-16T05:47:08;29.00;99.90
36352;DHT22;22382;44.768;17.206;2023-07-16T05:49:36;29.00;99.90
36352;DHT22;22382;44.768;17.206;2023-07-16T05:52:03;29.10;99.90
36352;DHT22;22382;44.768;17.206;2023-07-16T05:54:30;29.30;99.90
36352;DHT22;22382;44.768;17.206;2023-07-16T05:56:58;29.20;99.90
36352;DHT22;22382;44.768;17.206;2023-07-16T05:59:27;29.10;99.90
36352;DHT22;22382;44.768;17.206;2023-07-16T06:01:54;29.20;99.90
36352;DHT22;22382;44.768;17.206;2023-07-16T06:04:22;29.00;99.90
36352;DHT22;22382;44.768;17.206;2023-07-16T06:06:49;29.10;99.90
36352;DHT22;22382;44.768;17.206;2023-07-16T06:09:18;29.10;99.90
36352;DHT22;22382;44.768;17.206;2023-07-16T06:11:46;29.20;99.90
36352;DHT22;22382;44.768;17.206;2023-07-16T06:14:13;29.20;99.90
36352;DHT22;22382;44.768;17.206;2023-07-16T06:16:40;29.30;99.90
36352;DHT22;22382;44.768;17.206;2023-07-16T06:19:07;29.50;99.90
36352;DHT22;22382;44.768;17.206;2023-07-16T06:21:34;29.50;99.90
36352;DHT22;22382;44.768;17.206;2023-07-16T06:24:01;29.60;99.90
36352;DHT22;22382;44.768;17.206;2023-07-16T06:26:28;29.80;99.90
36352;DHT22;22382;44.768;17.206;2023-07-16T06:28:56;29.80;99.90
36352;DHT22;22382;44.768;17.206;2023-07-16T06:31:23;29.90;99.20
36352;DHT22;22382;44.768;17.206;2023-07-16T06:33:52;29.90;99.80
36352;DHT22;22382;44.768;17.206;2023-07-16T06:36:19;30.20;98.90
36352;DHT22;22382;44.768;17.206;2023-07-16T06:38:47;30.40;98.60
36352;DHT22;22382;44.768;17.206;2023-07-16T06:41:14;30.50;96.50
36352;DHT22;22382;44.768;17.206;2023-07-16T06:43:41;30.60;97.50
36352;DHT22;22382;44.768;17.206;2023-07-16T06:46:08;30.80;96.60
36352;DHT22;22382;44.768;17.206;2023-07-16T06:48:35;30.70;97.30
36352;DHT22;22382;44.768;17.206;2023-07-16T06:51:02;30.60;97.20
36352;DHT22;22382;44.768;17.206;2023-07-16T06:53:29;30.50;98.80
36352;DHT22;22382;44.768;17.206;2023-07-16T06:55:57;30.60;99.00
36352;DHT22;22382;44.768;17.206;2023-07-16T06:58:33;30.80;98.00
36352;DHT22;22382;44.768;17.206;2023-07-16T07:01:00;30.90;98.40
36352;DHT22;22382;44.768;17.206;2023-07-16T07:03:27;31.20;97.30
36352;DHT22;22382;44.768;17.206;2023-07-16T07:05:55;31.30;95.40
36352;DHT22;22382;44.768;17.206;2023-07-16T07:08:22;31.20;96.20
36352;DHT22;22382;44.768;17.206;2023-07-16T07:10:49;31.30;96.60
36352;DHT22;22382;44.768;17.206;2023-07-16T07:13:16;31.60;94.50
36352;DHT22;22382;44.768;17.206;2023-07-16T07:15:44;31.30;94.80
36352;DHT22;22382;44.768;17.206;2023-07-16T07:18:11;31.30;96.60
36352;DHT22;22382;44.768;17.206;2023-07-16T07:20:39;31.50;97.50
36352;DHT22;22382;44.768;17.206;2023-07-16T07:23:06;31.40;95.60
36352;DHT22;22382;44.768;17.206;2023-07-16T07:25:34;31.40;95.20
36352;DHT22;22382;44.768;17.206;2023-07-16T07:28:01;31.70;93.60
36352;DHT22;22382;44.768;17.206;2023-07-16T07:30:28;31.70;93.60
36352;DHT22;22382;44.768;17.206;2023-07-16T07:32:55;31.90;91.00
36352;DHT22;22382;44.768;17.206;2023-07-16T07:35:22;31.60;91.00
36352;DHT22;22382;44.768;17.206;2023-07-16T07:37:49;31.60;95.40
36352;DHT22;22382;44.768;17.206;2023-07-16T07:40:16;31.70;94.50
36352;DHT22;22382;44.768;17.206;2023-07-16T07:42:46;31.70;91.80
36352;DHT22;22382;44.768;17.206;2023-07-16T07:45:13;31.70;91.50
36352;DHT22;22382;44.768;17.206;2023-07-16T07:47:41;31.90;88.40
36352;DHT22;22382;44.768;17.206;2023-07-16T07:50:08;32.00;87.60
36352;DHT22;22382;44.768;17.206;2023-07-16T07:52:35;32.00;83.80
36352;DHT22;22382;44.768;17.206;2023-07-16T07:55:02;32.10;84.10
36352;DHT22;22382;44.768;17.206;2023-07-16T07:57:29;32.30;81.20
36352;DHT22;22382;44.768;17.206;2023-07-16T07:59:56;32.50;83.30
36352;DHT22;22382;44.768;17.206;2023-07-16T08:02:24;32.40;84.10
36352;DHT22;22382;44.768;17.206;2023-07-16T08:04:52;32.40;84.70
36352;DHT22;22382;44.768;17.206;2023-07-16T08:07:20;32.60;81.20
36352;DHT22;22382;44.768;17.206;2023-07-16T08:09:47;32.60;81.30
36352;DHT22;22382;44.768;17.206;2023-07-16T08:12:14;32.60;82.50
36352;DHT22;22382;44.768;17.206;2023-07-16T08:14:41;32.50;82.00
36352;DHT22;22382;44.768;17.206;2023-07-16T08:17:08;32.40;84.60
36352;DHT22;22382;44.768;17.206;2023-07-16T08:19:36;32.40;78.20
36352;DHT22;22382;44.768;17.206;2023-07-16T08:22:03;32.60;78.70
36352;DHT22;22382;44.768;17.206;2023-07-16T08:24:30;32.60;84.10
36352;DHT22;22382;44.768;17.206;2023-07-16T08:26:57;32.70;79.00
36352;DHT22;22382;44.768;17.206;2023-07-16T08:29:24;32.80;78.50
36352;DHT22;22382;44.768;17.206;2023-07-16T08:31:51;32.90;80.40
36352;DHT22;22382;44.768;17.206;2023-07-16T08:34:18;32.90;78.50
36352;DHT22;22382;44.768;17.206;2023-07-16T08:36:46;33.00;72.70
36352;DHT22;22382;44.768;17.206;2023-07-16T08:39:13;33.10;75.20
36352;DHT22;22382;44.768;17.206;2023-07-16T08:41:41;33.20;72.20
36352;DHT22;22382;44.768;17.206;2023-07-16T08:44:09;33.10;75.00
36352;DHT22;22382;44.768;17.206;2023-07-16T08:46:36;33.10;74.70
36352;DHT22;22382;44.768;17.206;2023-07-16T08:49:04;33.10;75.60
36352;DHT22;22382;44.768;17.206;2023-07-16T08:51:31;33.10;74.30
36352;DHT22;22382;44.768;17.206;2023-07-16T08:53:59;33.10;75.30
36352;DHT22;22382;44.768;17.206;2023-07-16T08:56:26;33.20;75.00
36352;DHT22;22382;44.768;17.206;2023-07-16T08:58:54;33.30;74.90
36352;DHT22;22382;44.768;17.206;2023-07-16T09:01:22;33.20;75.70
36352;DHT22;22382;44.768;17.206;2023-07-16T09:03:50;33.30;73.50
36352;DHT22;22382;44.768;17.206;2023-07-16T09:06:17;33.30;72.60
36352;DHT22;22382;44.768;17.206;2023-07-16T09:08:45;33.40;72.80
36352;DHT22;22382;44.768;17.206;2023-07-16T09:11:12;33.40;71.30
36352;DHT22;22382;44.768;17.206;2023-07-16T09:13:45;33.50;72.10
36352;DHT22;22382;44.768;17.206;2023-07-16T09:16:12;33.50;72.00
36352;DHT22;22382;44.768;17.206;2023-07-16T09:18:40;33.50;72.80
36352;DHT22;22382;44.768;17.206;2023-07-16T09:21:08;33.70;70.40
36352;DHT22;22382;44.768;17.206;2023-07-16T09:23:35;33.70;69.80
36352;DHT22;22382;44.768;17.206;2023-07-16T09:26:03;33.90;67.80
36352;DHT22;22382;44.768;17.206;2023-07-16T09:28:31;33.80;70.80
36352;DHT22;22382;44.768;17.206;2023-07-16T09:31:05;33.70;68.30
36352;DHT22;22382;44.768;17.206;2023-07-16T09:33:33;33.80;68.70
36352;DHT22;22382;44.768;17.206;2023-07-16T09:36:00;33.90;66.50
36352;DHT22;22382;44.768;17.206;2023-07-16T09:38:29;34.10;67.90
36352;DHT22;22382;44.768;17.206;2023-07-16T09:40:57;33.90;69.50
36352;DHT22;22382;44.768;17.206;2023-07-16T09:43:24;34.00;65.60
36352;DHT22;22382;44.768;17.206;2023-07-16T09:45:51;34.10;68.30
36352;DHT22;22382;44.768;17.206;2023-07-16T09:48:18;34.10;65.90
36352;DHT22;22382;44.768;17.206;2023-07-16T09:50:54;34.00;66.70
36352;DHT22;22382;44.768;17.206;2023-07-16T09:53:23;34.10;62.40
36352;DHT22;22382;44.768;17.206;2023-07-16T09:55:54;34.10;66.80
36352;DHT22;22382;44.768;17.206;2023-07-16T09:58:22;34.00;66.00
36352;DHT22;22382;44.768;17.206;2023-07-16T10:00:50;34.00;64.50
36352;DHT22;22382;44.768;17.206;2023-07-16T10:03:17;34.10;62.90
36352;DHT22;22382;44.768;17.206;2023-07-16T10:05:45;34.20;63.90
36352;DHT22;22382;44.768;17.206;2023-07-16T10:08:16;34.00;65.90
36352;DHT22;22382;44.768;17.206;2023-07-16T10:10:45;33.90;65.30
36352;DHT22;22382;44.768;17.206;2023-07-16T10:13:14;33.80;64.00
36352;DHT22;22382;44.768;17.206;2023-07-16T10:15:54;33.70;65.00
36352;DHT22;22382;44.768;17.206;2023-07-16T10:20:50;33.70;65.80
36352;DHT22;22382;44.768;17.206;2023-07-16T10:23:18;34.00;60.70
36352;DHT22;22382;44.768;17.206;2023-07-16T10:25:58;34.50;58.30
36352;DHT22;22382;44.768;17.206;2023-07-16T10:28:26;34.60;60.00
36352;DHT22;22382;44.768;17.206;2023-07-16T10:30:53;34.60;57.70
36352;DHT22;22382;44.768;17.206;2023-07-16T10:33:22;34.80;57.40
36352;DHT22;22382;44.768;17.206;2023-07-16T10:35:49;34.80;57.20
36352;DHT22;22382;44.768;17.206;2023-07-16T10:38:17;34.60;55.30
36352;DHT22;22382;44.768;17.206;2023-07-16T10:40:44;34.60;54.80
36352;DHT22;22382;44.768;17.206;2023-07-16T10:43:12;34.60;56.90
36352;DHT22;22382;44.768;17.206;2023-07-16T10:45:39;34.70;56.60
36352;DHT22;22382;44.768;17.206;2023-07-16T10:48:06;34.60;56.00
36352;DHT22;22382;44.768;17.206;2023-07-16T10:50:34;34.50;56.40
36352;DHT22;22382;44.768;17.206;2023-07-16T10:53:02;34.40;57.00
36352;DHT22;22382;44.768;17.206;2023-07-16T10:55:29;34.60;57.70
36352;DHT22;22382;44.768;17.206;2023-07-16T10:57:56;34.60;58.40
36352;DHT22;22382;44.768;17.206;2023-07-16T11:00:23;34.70;56.30
36352;DHT22;22382;44.768;17.206;2023-07-16T11:02:51;34.80;55.70
36352;DHT22;22382;44.768;17.206;2023-07-16T11:05:18;34.90;54.40
36352;DHT22;22382;44.768;17.206;2023-07-16T11:07:46;34.90;54.60
36352;DHT22;22382;44.768;17.206;2023-07-16T11:10:19;35.00;55.40
36352;DHT22;22382;44.768;17.206;2023-07-16T11:12:50;34.90;55.50
36352;DHT22;22382;44.768;17.206;2023-07-16T11:15:18;34.90;58.50
36352;DHT22;22382;44.768;17.206;2023-07-16T11:17:48;35.10;56.20
36352;DHT22;22382;44.768;17.206;2023-07-16T11:20:15;35.30;53.80
36352;DHT22;22382;44.768;17.206;2023-07-16T11:22:43;35.50;53.40
36352;DHT22;22382;44.768;17.206;2023-07-16T11:25:13;35.30;54.10
36352;DHT22;22382;44.768;17.206;2023-07-16T11:27:40;35.20;52.00
36352;DHT22;22382;44.768;17.206;2023-07-16T11:30:08;35.20;52.30
36352;DHT22;22382;44.768;17.206;2023-07-16T11:32:47;35.20;52.70
36352;DHT22;22382;44.768;17.206;2023-07-16T11:35:18;35.30;52.60
36352;DHT22;22382;44.768;17.206;2023-07-16T11:37:46;35.40;54.90
36352;DHT22;22382;44.768;17.206;2023-07-16T11:40:16;35.40;54.60
36352;DHT22;22382;44.768;17.206;2023-07-16T11:42:44;35.40;52.90
36352;DHT22;22382;44.768;17.206;2023-07-16T11:45:18;35.40;53.40
36352;DHT22;22382;44.768;17.206;2023-07-16T11:47:46;35.50;51.40
36352;DHT22;22382;44.768;17.206;2023-07-16T11:50:14;35.40;50.00
36352;DHT22;22382;44.768;17.206;2023-07-16T11:52:41;35.30;51.70
36352;DHT22;22382;44.768;17.206;2023-07-16T11:55:08;35.20;51.60
36352;DHT22;22382;44.768;17.206;2023-07-16T11:57:36;35.20;51.20
36352;DHT22;22382;44.768;17.206;2023-07-16T12:00:03;35.20;51.50
36352;DHT22;22382;44.768;17.206;2023-07-16T12:02:30;35.30;51.70
36352;DHT22;22382;44.768;17.206;2023-07-16T12:04:57;35.30;50.10
36352;DHT22;22382;44.768;17.206;2023-07-16T12:07:31;35.20;49.70
36352;DHT22;22382;44.768;17.206;2023-07-16T12:10:00;35.20;50.80
36352;DHT22;22382;44.768;17.206;2023-07-16T12:12:27;35.30;51.40
36352;DHT22;22382;44.768;17.206;2023-07-16T12:14:54;35.30;51.10
36352;DHT22;22382;44.768;17.206;2023-07-16T12:17:22;35.40;50.50
36352;DHT22;22382;44.768;17.206;2023-07-16T12:19:49;35.30;50.00
36352;DHT22;22382;44.768;17.206;2023-07-16T12:22:17;35.50;50.30
36352;DHT22;22382;44.768;17.206;2023-07-16T12:24:45;35.50;50.20
36352;DHT22;22382;44.768;17.206;2023-07-16T12:27:12;35.50;50.30
36352;DHT22;22382;44.768;17.206;2023-07-16T12:29:39;35.50;53.60
36352;DHT22;22382;44.768;17.206;2023-07-16T12:32:06;35.40;52.80
36352;DHT22;22382;44.768;17.206;2023-07-16T12:34:35;35.30;51.60
36352;DHT22;22382;44.768;17.206;2023-07-16T12:37:02;35.40;50.70
36352;DHT22;22382;44.768;17.206;2023-07-16T12:39:30;35.50;51.20
36352;DHT22;22382;44.768;17.206;2023-07-16T12:41:56;35.60;51.80
36352;DHT22;22382;44.768;17.206;2023-07-16T12:44:24;35.60;50.90
36352;DHT22;22382;44.768;17.206;2023-07-16T12:46:51;35.50;51.10
36352;DHT22;22382;44.768;17.206;2023-07-16T12:49:19;35.30;50.10
36352;DHT22;22382;44.768;17.206;2023-07-16T12:51:46;35.20;50.60
36352;DHT22;22382;44.768;17.206;2023-07-16T12:54:13;35.20;49.80
36352;DHT22;22382;44.768;17.206;2023-07-16T12:56:40;35.10;49.70
36352;DHT22;22382;44.768;17.206;2023-07-16T12:59:07;35.20;52.00
36352;DHT22;22382;44.768;17.206;2023-07-16T13:01:34;35.30;50.60
36352;DHT22;22382;44.768;17.206;2023-07-16T13:04:01;35.40;50.50
36352;DHT22;22382;44.768;17.206;2023-07-16T13:06:29;35.40;50.20
36352;DHT22;22382;44.768;17.206;2023-07-16T13:08:56;35.50;49.90
36352;DHT22;22382;44.768;17.206;2023-07-16T13:11:23;35.50;50.60
36352;DHT22;22382;44.768;17.206;2023-07-16T13:13:51;35.50;50.30
36352;DHT22;22382;44.768;17.206;2023-07-16T13:16:18;35.50;50.90
36352;DHT22;22382;44.768;17.206;2023-07-16T13:18:46;35.50;50.10
36352;DHT22;22382;44.768;17.206;2023-07-16T13:21:13;35.40;50.20
36352;DHT22;22382;44.768;17.206;2023-07-16T13:23:40;35.20;51.10
36352;DHT22;22382;44.768;17.206;2023-07-16T13:26:07;35.10;51.40
36352;DHT22;22382;44.768;17.206;2023-07-16T13:28:34;35.10;51.40
36352;DHT22;22382;44.768;17.206;2023-07-16T13:31:01;35.10;52.20
36352;DHT22;22382;44.768;17.206;2023-07-16T13:33:28;35.10;52.00
36352;DHT22;22382;44.768;17.206;2023-07-16T13:35:56;35.00;53.00
36352;DHT22;22382;44.768;17.206;2023-07-16T13:38:24;35.50;51.40
36352;DHT22;22382;44.768;17.206;2023-07-16T13:40:51;35.60;51.60
36352;DHT22;22382;44.768;17.206;2023-07-16T13:43:18;35.30;51.90
36352;DHT22;22382;44.768;17.206;2023-07-16T13:45:45;35.30;51.80
36352;DHT22;22382;44.768;17.206;2023-07-16T13:48:12;35.20;52.60
36352;DHT22;22382;44.768;17.206;2023-07-16T13:50:39;35.30;52.20
36352;DHT22;22382;44.768;17.206;2023-07-16T13:53:06;35.20;51.30
36352;DHT22;22382;44.768;17.206;2023-07-16T13:55:33;35.30;51.60
36352;DHT22;22382;44.768;17.206;2023-07-16T13:58:00;35.30;53.50
36352;DHT22;22382;44.768;17.206;2023-07-16T14:00:27;35.50;52.90
36352;DHT22;22382;44.768;17.206;2023-07-16T14:02:54;35.50;52.20
36352;DHT22;22382;44.768;17.206;2023-07-16T14:05:21;35.60;52.70
36352;DHT22;22382;44.768;17.206;2023-07-16T14:07:49;35.70;53.30
36352;DHT22;22382;44.768;17.206;2023-07-16T14:10:17;36.00;52.30
36352;DHT22;22382;44.768;17.206;2023-07-16T14:12:45;36.00;51.10
36352;DHT22;22382;44.768;17.206;2023-07-16T14:15:11;35.90;53.70
36352;DHT22;22382;44.768;17.206;2023-07-16T14:17:39;35.80;54.30
36352;DHT22;22382;44.768;17.206;2023-07-16T14:20:06;35.50;54.70
36352;DHT22;22382;44.768;17.206;2023-07-16T14:22:33;35.40;55.70
36352;DHT22;22382;44.768;17.206;2023-07-16T14:25:00;35.40;54.00
36352;DHT22;22382;44.768;17.206;2023-07-16T14:27:27;35.40;53.80
36352;DHT22;22382;44.768;17.206;2023-07-16T14:29:54;35.20;56.90
36352;DHT22;22382;44.768;17.206;2023-07-16T14:32:32;35.20;57.40
36352;DHT22;22382;44.768;17.206;2023-07-16T14:34:59;35.10;57.60
36352;DHT22;22382;44.768;17.206;2023-07-16T14:37:27;35.20;58.60
36352;DHT22;22382;44.768;17.206;2023-07-16T14:39:54;35.30;58.90
36352;DHT22;22382;44.768;17.206;2023-07-16T14:42:21;35.10;59.20
36352;DHT22;22382;44.768;17.206;2023-07-16T14:44:48;35.10;58.70
36352;DHT22;22382;44.768;17.206;2023-07-16T14:47:15;35.10;58.90
36352;DHT22;22382;44.768;17.206;2023-07-16T14:49:43;35.00;59.10
36352;DHT22;22382;44.768;17.206;2023-07-16T14:52:10;35.10;59.70
36352;DHT22;22382;44.768;17.206;2023-07-16T14:54:37;34.90;60.30
36352;DHT22;22382;44.768;17.206;2023-07-16T14:57:04;35.10;59.20
36352;DHT22;22382;44.768;17.206;2023-07-16T14:59:32;36.20;58.90
36352;DHT22;22382;44.768;17.206;2023-07-16T15:01:59;38.00;56.80
36352;DHT22;22382;44.768;17.206;2023-07-16T15:04:26;39.20;54.50
36352;DHT22;22382;44.768;17.206;2023-07-16T15:06:53;40.10;52.90
36352;DHT22;22382;44.768;17.206;2023-07-16T15:09:20;41.00;51.90
36352;DHT22;22382;44.768;17.206;2023-07-16T15:11:47;40.50;52.00
36352;DHT22;22382;44.768;17.206;2023-07-16T15:14:14;40.70;51.80
36352;DHT22;22382;44.768;17.206;2023-07-16T15:16:41;42.00;50.10
36352;DHT22;22382;44.768;17.206;2023-07-16T15:19:09;42.30;50.00
36352;DHT22;22382;44.768;17.206;2023-07-16T15:21:37;42.90;48.60
36352;DHT22;22382;44.768;17.206;2023-07-16T15:24:05;42.50;49.10
36352;DHT22;22382;44.768;17.206;2023-07-16T15:26:33;42.10;49.00
36352;DHT22;22382;44.768;17.206;2023-07-16T15:29:00;42.10;49.00